createdAt,value
2018-01-14T00:01:15.564Z,70.77
2018-01-14T00:03:43.127Z,77.50
2018-01-14T00:06:10.782Z,80.73
2018-01-14T00:08:38.312Z,73.50
2018-01-14T00:11:06.198Z,64.87
2018-01-14T00:13:33.724Z,76.37
2018-01-14T00:16:01.281Z,80.87
2018-01-14T00:18:28.831Z,61.10
2018-01-14T00:20:56.378Z,63.30
2018-01-14T00:23:23.993Z,56.10
2018-01-14T00:25:51.594Z,63.90
2018-01-14T00:28:19.125Z,53.43
2018-01-14T00:30:46.659Z,70.53
2018-01-14T00:33:14.377Z,61.50
2018-01-14T00:35:41.956Z,73.80
2018-01-14T00:38:09.504Z,54.30
2018-01-14T00:40:37.073Z,77.97
2018-01-14T00:43:04.592Z,74.13
2018-01-14T00:45:32.521Z,65.67
2018-01-14T00:48:00.045Z,57.23
2018-01-14T00:50:27.593Z,62.97
2018-01-14T00:52:55.205Z,74.00
2018-01-14T00:55:22.757Z,63.80
2018-01-14T00:57:50.276Z,76.67
2018-01-14T01:00:18.186Z,48.20
2018-01-14T01:02:45.742Z,45.27
2018-01-14T01:05:13.255Z,62.30
2018-01-14T01:07:40.800Z,63.83
2018-01-14T01:10:08.350Z,64.17
2018-01-14T01:12:35.892Z,66.00
2018-01-14T01:15:03.441Z,63.73
2018-01-14T01:17:30.297Z,61.33
2018-01-14T01:19:57.842Z,64.70
2018-01-14T01:22:25.373Z,57.23
2018-01-14T01:24:52.961Z,65.93
2018-01-14T01:27:20.517Z,56.13
2018-01-14T01:29:48.036Z,54.80
2018-01-14T01:32:15.576Z,68.57
2018-01-14T01:34:43.180Z,66.67
2018-01-14T01:37:10.712Z,62.70
2018-01-14T01:39:38.228Z,61.67
2018-01-14T01:42:05.827Z,54.70
2018-01-14T01:44:33.357Z,46.57
2018-01-14T01:47:00.895Z,55.57
2018-01-14T01:49:28.407Z,65.97
2018-01-14T01:51:56.031Z,46.17
2018-01-14T01:54:23.557Z,50.10
2018-01-14T01:56:51.103Z,50.10
2018-01-14T01:59:18.644Z,41.90
2018-01-14T02:01:46.221Z,55.90
2018-01-14T02:04:13.736Z,61.67
2018-01-14T02:06:41.262Z,60.20
2018-01-14T02:09:08.833Z,44.77
2018-01-14T02:11:36.483Z,48.23
2018-01-14T02:14:04.487Z,67.20
2018-01-14T02:16:32.034Z,62.07
2018-01-14T02:18:59.556Z,58.67
2018-01-14T02:21:27.132Z,66.67
2018-01-14T02:23:54.648Z,54.57
2018-01-14T02:26:22.179Z,57.33
2018-01-14T02:28:49.757Z,44.37
2018-01-14T02:31:17.396Z,53.00
2018-01-14T02:33:44.934Z,55.97
2018-01-14T02:36:12.548Z,53.23
2018-01-14T02:38:40.149Z,70.00
2018-01-14T02:41:07.659Z,55.57
2018-01-14T02:43:35.185Z,58.33
2018-01-14T02:46:02.762Z,40.30
2018-01-14T02:48:30.308Z,59.33
2018-01-14T02:50:57.935Z,56.20
2018-01-14T02:53:25.493Z,46.70
2018-01-14T02:55:53.036Z,39.83
2018-01-14T02:58:20.818Z,57.93
2018-01-14T03:00:48.361Z,58.43
2018-01-14T03:03:16.126Z,47.73
2018-01-14T03:05:43.648Z,53.87
2018-01-14T03:08:11.198Z,55.67
2018-01-14T03:10:38.816Z,62.90
2018-01-14T03:13:06.378Z,51.53
2018-01-14T03:15:33.931Z,61.93
2018-01-14T03:18:01.508Z,45.40
2018-01-14T03:20:29.023Z,54.53
2018-01-14T03:22:56.636Z,54.63
2018-01-14T03:25:24.156Z,54.43
2018-01-14T03:27:51.700Z,40.37
2018-01-14T03:30:19.269Z,43.17
2018-01-14T03:32:46.873Z,53.23
2018-01-14T03:35:14.448Z,53.43
2018-01-14T03:37:42.136Z,54.93
2018-01-14T03:40:10.136Z,42.37
2018-01-14T03:42:37.695Z,49.13
2018-01-14T03:45:05.266Z,42.00
2018-01-14T03:47:32.856Z,48.73
2018-01-14T03:50:00.433Z,46.07
2018-01-14T03:52:27.957Z,47.17
2018-01-14T03:54:55.899Z,58.70
2018-01-14T03:57:23.429Z,51.70
2018-01-14T03:59:50.972Z,52.30
2018-01-14T04:02:18.543Z,51.03
2018-01-14T04:04:46.105Z,62.13
2018-01-14T04:07:14.025Z,58.93
2018-01-14T04:09:41.600Z,59.20
2018-01-14T04:12:09.166Z,38.00
2018-01-14T04:14:36.740Z,54.47
2018-01-14T04:17:04.292Z,40.93
2018-01-14T04:19:31.902Z,46.33
2018-01-14T04:21:59.524Z,63.80
2018-01-14T04:24:27.069Z,58.23
2018-01-14T04:26:54.633Z,55.33
2018-01-14T04:29:22.581Z,59.20
2018-01-14T04:31:50.196Z,63.60
2018-01-14T04:34:17.753Z,64.37
2018-01-14T04:36:45.314Z,56.70
2018-01-14T04:39:12.893Z,58.27
2018-01-14T04:41:40.506Z,62.80
2018-01-14T04:44:08.439Z,67.67
2018-01-14T04:46:35.970Z,56.33
2018-01-14T04:49:03.536Z,50.40
2018-01-14T04:51:31.109Z,68.00
2018-01-14T04:53:58.701Z,64.67
2018-01-14T04:56:26.289Z,62.20
2018-01-14T04:58:54.031Z,74.03
2018-01-14T05:01:21.557Z,72.00
2018-01-14T05:03:49.085Z,66.53
2018-01-14T05:06:16.831Z,62.30
2018-01-14T05:08:44.372Z,64.43
2018-01-14T05:11:11.887Z,69.87
2018-01-14T05:13:39.485Z,64.97
2018-01-14T05:16:07.043Z,70.87
2018-01-14T05:18:34.608Z,71.53
2018-01-14T05:21:02.379Z,66.73
2018-01-14T05:23:29.907Z,57.87
2018-01-14T05:25:57.648Z,63.37
2018-01-14T05:28:25.186Z,65.17
2018-01-14T05:30:52.695Z,62.23
2018-01-14T05:33:20.233Z,64.33
2018-01-14T05:35:47.825Z,72.63
2018-01-14T05:38:15.367Z,60.50
2018-01-14T05:40:43.075Z,67.70
2018-01-14T05:43:10.627Z,62.27
2018-01-14T05:45:38.197Z,62.43
2018-01-14T05:48:05.753Z,70.87
2018-01-14T05:50:33.315Z,65.80
2018-01-14T05:53:00.869Z,67.47
2018-01-14T05:55:28.408Z,68.70
2018-01-14T05:57:55.945Z,70.07
2018-01-14T06:00:23.511Z,59.33
2018-01-14T06:02:51.044Z,70.00
2018-01-14T06:05:18.928Z,61.43
2018-01-14T06:07:46.791Z,61.20
2018-01-14T06:10:14.302Z,68.53
2018-01-14T06:12:41.855Z,66.70
2018-01-14T06:15:09.392Z,48.17
2018-01-14T06:17:36.974Z,57.63
2018-01-14T06:20:04.606Z,61.73
2018-01-14T06:22:32.124Z,65.67
2018-01-14T06:24:59.660Z,70.83
2018-01-14T06:27:27.208Z,57.27
2018-01-14T06:29:54.838Z,64.10
2018-01-14T06:32:22.444Z,58.47
2018-01-14T06:34:50.031Z,62.83
2018-01-14T06:37:17.585Z,48.73
2018-01-14T06:39:45.129Z,75.03
2018-01-14T06:42:12.668Z,66.77
2018-01-14T06:44:40.238Z,74.10
2018-01-14T06:47:07.765Z,65.90
2018-01-14T06:49:35.333Z,77.27
2018-01-14T06:52:02.890Z,66.30
2018-01-14T06:54:30.820Z,65.90
2018-01-14T06:56:58.455Z,65.63
2018-01-14T06:59:25.976Z,59.97
2018-01-14T07:01:53.515Z,73.43
2018-01-14T07:04:21.086Z,60.30
2018-01-14T07:06:48.633Z,65.13
2018-01-14T07:09:16.185Z,62.30
2018-01-14T07:11:43.697Z,61.73
2018-01-14T07:14:11.339Z,61.00
2018-01-14T07:16:38.876Z,57.40
2018-01-14T07:19:06.445Z,62.77
2018-01-14T07:21:34.044Z,59.70
2018-01-14T07:24:01.630Z,65.53
2018-01-14T07:26:29.142Z,67.47
2018-01-14T07:28:57.074Z,60.77
2018-01-14T07:31:24.619Z,59.87
2018-01-14T07:33:52.135Z,61.00
2018-01-14T07:36:19.709Z,60.17
2018-01-14T07:38:47.249Z,57.30
2018-01-14T07:41:14.787Z,64.93
2018-01-14T07:43:42.324Z,67.30
2018-01-14T07:46:09.926Z,61.90
2018-01-14T07:48:37.453Z,59.40
2018-01-14T07:51:05.037Z,66.90
2018-01-14T07:53:32.553Z,60.43
2018-01-14T07:56:00.120Z,58.83
2018-01-14T07:58:27.712Z,65.60
2018-01-14T08:00:55.251Z,68.30
2018-01-14T08:03:22.779Z,60.97
2018-01-14T08:05:50.320Z,58.67
2018-01-14T08:08:17.884Z,63.33
2018-01-14T08:10:45.394Z,61.47
2018-01-14T08:13:12.969Z,57.97
2018-01-14T08:15:40.664Z,54.50
2018-01-14T08:18:08.258Z,60.93
2018-01-14T08:20:35.813Z,60.50
2018-01-14T08:23:03.372Z,59.47
2018-01-14T08:25:30.935Z,64.33
2018-01-14T08:27:58.547Z,55.70
2018-01-14T08:30:26.090Z,63.37
2018-01-14T08:32:53.641Z,44.40
2018-01-14T08:35:21.236Z,55.37
2018-01-14T08:37:49.052Z,61.77
2018-01-14T08:40:16.572Z,50.07
2018-01-14T08:42:44.148Z,56.80
2018-01-14T08:45:11.664Z,62.77
2018-01-14T08:47:39.487Z,50.43
2018-01-14T08:50:07.040Z,63.30
2018-01-14T08:52:34.585Z,49.63
2018-01-14T08:55:02.242Z,60.30
2018-01-14T08:57:29.936Z,49.67
2018-01-14T08:59:57.480Z,59.20
2018-01-14T09:02:25.099Z,57.63
2018-01-14T09:04:52.649Z,52.57
2018-01-14T09:07:20.167Z,47.00
2018-01-14T09:09:47.776Z,59.70
2018-01-14T09:12:15.317Z,63.07
2018-01-14T09:14:42.863Z,60.10
2018-01-14T09:17:10.822Z,79.37
2018-01-14T09:19:38.366Z,70.93
2018-01-14T09:22:05.896Z,51.73
2018-01-14T09:24:33.480Z,64.53
2018-01-14T09:27:01.008Z,70.17
2018-01-14T09:29:28.572Z,59.00
2018-01-14T09:31:56.146Z,64.30
2018-01-14T09:34:23.731Z,44.93
2018-01-14T09:36:51.410Z,60.27
2018-01-14T09:39:18.981Z,53.37
2018-01-14T09:41:46.535Z,55.30
2018-01-14T09:44:14.047Z,60.83
2018-01-14T09:46:41.587Z,60.27
2018-01-14T09:49:09.286Z,55.50
2018-01-14T09:51:37.062Z,59.30
2018-01-14T09:54:05.562Z,61.60
2018-01-14T09:56:33.145Z,67.93
2018-01-14T09:59:00.716Z,58.73
2018-01-14T10:01:28.293Z,63.50
2018-01-14T10:03:57.087Z,58.47
2018-01-14T10:06:24.664Z,58.73
2018-01-14T10:08:52.232Z,71.03
2018-01-14T10:11:19.772Z,59.37
2018-01-14T10:13:47.353Z,48.23
2018-01-14T10:16:14.882Z,58.80
2018-01-14T10:18:42.395Z,75.30
2018-01-14T10:21:09.959Z,55.50
2018-01-14T10:23:37.509Z,56.77
2018-01-14T10:26:05.467Z,48.90
2018-01-14T10:28:32.992Z,67.30
2018-01-14T10:31:00.572Z,54.67
2018-01-14T10:33:28.177Z,59.87
2018-01-14T10:35:55.776Z,59.97
2018-01-14T10:38:23.292Z,57.03
2018-01-14T10:40:51.718Z,61.30
2018-01-14T10:43:19.318Z,48.07
2018-01-14T10:45:46.843Z,46.40
2018-01-14T10:48:14.385Z,62.47
2018-01-14T10:50:41.906Z,58.53
2018-01-14T10:53:09.464Z,60.77
2018-01-14T10:55:36.999Z,58.87
2018-01-14T10:58:04.609Z,59.33
2018-01-14T11:00:37.732Z,60.97
2018-01-14T11:03:05.615Z,52.20
2018-01-14T11:05:33.156Z,58.13
2018-01-14T11:08:00.704Z,55.07
2018-01-14T11:10:28.402Z,57.40
2018-01-14T11:12:55.972Z,57.70
2018-01-14T11:15:23.506Z,62.70
2018-01-14T11:17:51.034Z,55.83
2018-01-14T11:20:18.601Z,51.10
2018-01-14T11:22:46.154Z,56.73
2018-01-14T11:25:13.732Z,55.53
2018-01-14T11:27:41.301Z,68.00
2018-01-14T11:30:08.987Z,50.77
2018-01-14T11:32:36.530Z,51.20
2018-01-14T11:35:04.080Z,54.80
2018-01-14T11:37:31.657Z,65.00
2018-01-14T11:39:59.229Z,56.53
2018-01-14T11:42:26.744Z,57.63
2018-01-14T11:44:54.296Z,58.57
2018-01-14T11:47:21.870Z,55.07
2018-01-14T11:49:49.470Z,52.53
2018-01-14T11:52:17.007Z,64.70
2018-01-14T11:54:44.612Z,54.17
2018-01-14T11:57:12.186Z,53.23
2018-01-14T11:59:39.872Z,52.33
2018-01-14T12:02:07.480Z,53.27
2018-01-14T12:04:35.009Z,55.83
2018-01-14T12:07:02.796Z,57.70
2018-01-14T12:09:30.376Z,51.40
2018-01-14T12:11:58.033Z,48.10
2018-01-14T12:14:25.580Z,59.50
2018-01-14T12:16:53.106Z,48.53
2018-01-14T12:19:20.681Z,50.70
2018-01-14T12:21:48.336Z,46.00
2018-01-14T12:24:15.893Z,55.87
2018-01-14T12:26:43.435Z,48.83
2018-01-14T12:29:10.979Z,45.40
2018-01-14T12:31:38.528Z,49.17
2018-01-14T12:37:17.756Z,48.70
2018-01-14T12:39:45.376Z,43.20
2018-01-14T12:42:12.938Z,47.83
2018-01-14T12:44:40.467Z,42.57
2018-01-14T12:47:08.067Z,55.03
2018-01-14T12:49:35.579Z,44.00
2018-01-14T12:52:03.129Z,46.10
2018-01-14T12:54:30.696Z,47.87
2018-01-14T12:56:58.301Z,48.77
2018-01-14T12:59:25.839Z,46.67
2018-01-14T13:01:53.594Z,43.43
2018-01-14T13:04:21.118Z,43.47
2018-01-14T13:06:48.676Z,49.73
2018-01-14T13:09:16.195Z,39.53
2018-01-14T13:11:43.764Z,47.43
2018-01-14T13:14:11.303Z,44.13
2018-01-14T13:16:38.922Z,40.90
2018-01-14T13:19:06.467Z,42.20
2018-01-14T13:21:33.991Z,42.57
2018-01-14T13:24:01.566Z,47.87
2018-01-14T13:26:29.092Z,44.50
2018-01-14T13:28:56.691Z,41.33
2018-01-14T13:31:24.232Z,46.40
2018-01-14T13:33:51.780Z,52.10
2018-01-14T13:36:19.332Z,46.90
2018-01-14T13:38:47.027Z,36.30
2018-01-14T13:41:14.590Z,41.17
2018-01-14T13:43:42.113Z,53.20
2018-01-14T13:46:09.687Z,50.87
2018-01-14T13:48:37.231Z,42.07
2018-01-14T13:51:04.890Z,44.37
2018-01-14T13:53:32.462Z,45.97
2018-01-14T13:55:59.990Z,47.60
2018-01-14T13:58:27.550Z,40.50
2018-01-14T14:00:55.106Z,38.30
2018-01-14T14:03:22.663Z,44.90
2018-01-14T14:05:50.267Z,42.43
2018-01-14T14:08:17.827Z,38.10
2018-01-14T14:10:45.438Z,35.07
2018-01-14T14:13:13.667Z,41.20
2018-01-14T14:15:41.339Z,51.73
2018-01-14T14:18:08.898Z,44.20
2018-01-14T14:20:36.441Z,73.63
2018-01-14T14:23:04.006Z,71.83
2018-01-14T14:25:31.527Z,50.90
2018-01-14T14:27:59.120Z,46.27
2018-01-14T14:30:26.778Z,44.13
2018-01-14T14:32:54.324Z,46.67
2018-01-14T14:35:21.870Z,63.80
2018-01-14T14:37:49.612Z,47.30
2018-01-14T14:40:17.183Z,48.40
2018-01-14T14:42:44.704Z,50.03
2018-01-14T14:45:12.450Z,39.20
2018-01-14T14:47:40.180Z,42.93
2018-01-14T14:50:07.888Z,42.43
2018-01-14T14:52:35.536Z,54.43
2018-01-14T14:55:03.093Z,45.77
2018-01-14T14:57:30.668Z,43.70
2018-01-14T14:59:58.236Z,50.00
2018-01-14T15:02:25.779Z,44.50
2018-01-14T15:04:53.300Z,43.60
2018-01-14T15:07:20.884Z,45.40
2018-01-14T15:09:48.469Z,43.63
2018-01-14T15:12:16.131Z,40.47
2018-01-14T15:14:43.830Z,48.60
2018-01-14T15:17:11.397Z,50.60
2018-01-14T15:19:39.580Z,66.67
2018-01-14T15:22:07.135Z,46.40
2018-01-14T15:24:34.869Z,54.27
2018-01-14T15:27:02.704Z,40.60
2018-01-14T15:29:30.219Z,42.83
2018-01-14T15:31:57.778Z,58.77
2018-01-14T15:34:25.317Z,123.27
2018-01-14T15:36:52.963Z,114.53
2018-01-14T15:39:20.592Z,144.93
2018-01-14T15:41:48.126Z,172.17
2018-01-14T15:44:15.642Z,131.90
2018-01-14T15:46:43.242Z,79.40
2018-01-14T15:49:11.215Z,62.23
2018-01-14T15:51:38.858Z,57.67
2018-01-14T15:54:06.376Z,57.03
2018-01-14T15:56:33.983Z,56.40
2018-01-14T15:59:01.664Z,46.00
2018-01-14T16:01:29.329Z,49.67
2018-01-14T16:03:56.879Z,51.87
2018-01-14T16:06:24.416Z,46.57
2018-01-14T16:08:52.173Z,53.27
2018-01-14T16:11:19.747Z,51.30
2018-01-14T16:13:47.293Z,52.43
2018-01-14T16:16:14.819Z,91.60
2018-01-14T16:18:42.387Z,132.83
2018-01-14T16:21:09.933Z,114.57
2018-01-14T16:23:37.862Z,128.33
2018-01-14T16:26:05.475Z,113.93
2018-01-14T16:28:33.016Z,93.53
2018-01-14T16:31:00.623Z,116.93
2018-01-14T16:33:28.192Z,103.23
2018-01-14T16:35:55.862Z,71.10
2018-01-14T16:38:23.411Z,71.87
2018-01-14T16:40:51.004Z,49.63
2018-01-14T16:43:18.553Z,56.13
2018-01-14T16:45:46.132Z,74.67
2018-01-14T16:48:13.671Z,68.17
2018-01-14T16:50:41.514Z,77.40
2018-01-14T16:53:09.196Z,72.13
2018-01-14T16:55:36.788Z,63.70
2018-01-14T16:58:04.353Z,51.20
2018-01-14T17:00:31.905Z,62.33
2018-01-14T17:02:59.506Z,68.90
2018-01-14T17:05:27.108Z,55.40
2018-01-14T17:07:54.726Z,57.73
2018-01-14T17:10:22.252Z,52.43
2018-01-14T17:12:50.060Z,55.30
2018-01-14T17:15:17.637Z,45.67
2018-01-14T17:17:45.197Z,42.67
2018-01-14T17:20:12.763Z,50.17
2018-01-14T17:22:40.476Z,50.60
2018-01-14T17:25:08.044Z,44.40
2018-01-14T17:27:35.625Z,54.33
2018-01-14T17:30:03.163Z,46.30
2018-01-14T17:32:30.713Z,47.10
2018-01-14T17:34:58.267Z,47.87
2018-01-14T17:37:25.775Z,44.00
2018-01-14T17:39:53.335Z,48.80
2018-01-14T17:42:20.855Z,54.00
2018-01-14T17:44:48.495Z,45.93
2018-01-14T17:47:16.250Z,61.77
2018-01-14T17:49:43.827Z,55.67
2018-01-14T17:52:11.354Z,52.07
2018-01-14T17:54:39.316Z,55.53
2018-01-14T17:57:06.888Z,49.67
2018-01-14T17:59:34.460Z,48.10
2018-01-14T18:02:02.023Z,42.60
2018-01-14T18:04:29.579Z,68.07
2018-01-14T18:06:57.552Z,72.33
2018-01-14T18:09:25.073Z,64.00
2018-01-14T18:11:52.616Z,59.10
2018-01-14T18:14:20.423Z,79.40
2018-01-14T18:16:59.673Z,64.60
2018-01-14T18:19:27.191Z,63.77
2018-01-14T18:21:54.861Z,53.03
2018-01-14T18:24:22.395Z,55.20
2018-01-14T18:26:50.022Z,55.10
2018-01-14T18:29:17.542Z,49.17
2018-01-14T18:31:45.092Z,58.10
2018-01-14T18:34:12.712Z,57.40
2018-01-14T18:36:40.317Z,53.27
2018-01-14T18:39:07.892Z,53.00
2018-01-14T18:41:35.442Z,49.00
2018-01-14T18:44:02.994Z,53.03
2018-01-14T18:46:30.894Z,47.43
2018-01-14T18:48:58.526Z,52.23
2018-01-14T18:51:26.076Z,47.83
2018-01-14T18:53:53.665Z,52.33
2018-01-14T18:56:21.182Z,37.80
2018-01-14T18:58:49.060Z,47.70
2018-01-14T19:01:16.580Z,49.00
2018-01-14T19:03:45.079Z,53.27
2018-01-14T19:06:12.661Z,51.50
2018-01-14T19:08:40.217Z,49.10
2018-01-14T19:11:08.131Z,65.77
2018-01-14T19:13:35.644Z,47.10
2018-01-14T19:16:03.193Z,58.90
2018-01-14T19:18:30.780Z,55.83
2018-01-14T19:20:58.413Z,51.03
2018-01-14T19:23:25.957Z,49.83
2018-01-14T19:25:53.640Z,51.53
2018-01-14T19:28:21.208Z,63.60
2018-01-14T19:30:48.726Z,62.37
2018-01-14T19:33:16.274Z,53.00
2018-01-14T19:35:43.797Z,50.13
2018-01-14T19:38:11.358Z,46.40
2018-01-14T19:40:38.904Z,51.03
2018-01-14T19:43:06.449Z,45.13
2018-01-14T19:45:34.358Z,55.70
2018-01-14T19:48:02.094Z,62.40
2018-01-14T19:50:29.632Z,52.37
2018-01-14T19:52:57.198Z,49.50
2018-01-14T19:55:24.925Z,57.97
2018-01-14T19:57:52.725Z,60.90
2018-01-14T20:00:20.335Z,62.90
2018-01-14T20:02:48.419Z,54.90
2018-01-14T20:05:16.261Z,49.50
2018-01-14T20:07:44.148Z,70.63
2018-01-14T20:10:11.819Z,54.63
2018-01-14T20:12:39.557Z,69.53
2018-01-14T20:15:07.373Z,56.28
2018-01-14T20:17:35.067Z,49.70
2018-01-14T20:20:02.783Z,56.00
2018-01-14T20:22:30.381Z,52.43
2018-01-14T20:24:57.948Z,52.90
2018-01-14T20:27:25.591Z,42.53
2018-01-14T20:29:53.148Z,49.60
2018-01-14T20:32:20.790Z,53.37
2018-01-14T20:34:48.395Z,45.93
2018-01-14T20:37:15.939Z,46.30
2018-01-14T20:39:43.808Z,45.53
2018-01-14T20:42:11.503Z,46.63
2018-01-14T20:44:44.598Z,44.17
2018-01-14T20:47:12.181Z,48.77
2018-01-14T20:49:39.736Z,48.47
2018-01-14T20:52:07.255Z,42.03
2018-01-14T20:54:34.853Z,51.00
2018-01-14T20:57:02.421Z,45.70
2018-01-14T20:59:29.976Z,46.40
2018-01-14T21:01:57.514Z,49.80
2018-01-14T21:04:31.084Z,43.13
2018-01-14T21:06:58.697Z,52.50
2018-01-14T21:09:26.258Z,53.80
2018-01-14T21:11:53.861Z,51.93
2018-01-14T21:14:21.424Z,45.13
2018-01-14T21:16:48.944Z,48.83
2018-01-14T21:19:16.574Z,49.93
2018-01-14T21:21:44.194Z,51.90
2018-01-14T21:24:11.774Z,55.87
2018-01-14T21:26:39.355Z,43.70
2018-01-14T21:29:06.876Z,51.47
2018-01-14T21:31:34.462Z,49.63
2018-01-14T21:34:02.003Z,42.20
2018-01-14T21:36:29.585Z,52.33
2018-01-14T21:38:57.137Z,45.70
2018-01-14T21:41:24.723Z,47.67
2018-01-14T21:43:52.268Z,50.23
2018-01-14T21:46:19.844Z,51.63
2018-01-14T21:48:47.397Z,46.00
2018-01-14T21:51:14.923Z,42.60
2018-01-14T21:53:42.543Z,45.70
2018-01-14T21:56:10.110Z,44.57
2018-01-14T21:58:37.668Z,47.20
2018-01-14T22:01:05.244Z,51.43
2018-01-14T22:03:32.762Z,40.27
2018-01-14T22:06:00.299Z,46.20
2018-01-14T22:08:27.842Z,50.60
2018-01-14T22:10:55.392Z,57.40
2018-01-14T22:13:22.944Z,52.43
2018-01-14T22:15:50.860Z,45.77
2018-01-14T22:18:18.424Z,45.47
2018-01-14T22:20:45.950Z,52.83
2018-01-14T22:23:13.483Z,46.13
2018-01-14T22:25:41.027Z,46.53
2018-01-14T22:28:08.834Z,49.47
2018-01-14T22:30:36.556Z,57.13
2018-01-14T22:33:04.266Z,43.13
2018-01-14T22:35:31.797Z,53.47
2018-01-14T22:37:59.372Z,58.30
2018-01-14T22:40:26.955Z,52.20
2018-01-14T22:42:54.553Z,57.60
2018-01-14T22:45:22.105Z,47.43
2018-01-14T22:47:49.685Z,47.13
2018-01-14T22:50:17.217Z,49.53
2018-01-14T22:52:44.788Z,58.60
2018-01-14T22:55:12.328Z,53.93
2018-01-14T22:57:40.106Z,51.60
2018-01-14T23:00:07.724Z,46.60
2018-01-14T23:02:35.294Z,46.17
2018-01-14T23:05:02.835Z,48.63
2018-01-14T23:07:30.440Z,51.03
2018-01-14T23:09:57.998Z,54.70
2018-01-14T23:12:25.570Z,55.27
2018-01-14T23:14:58.903Z,47.00
2018-01-14T23:17:26.515Z,57.93
2018-01-14T23:19:54.061Z,51.57
2018-01-14T23:22:21.648Z,55.27
2018-01-14T23:24:49.276Z,53.17
2018-01-14T23:27:16.823Z,52.00
2018-01-14T23:29:44.495Z,45.57
2018-01-14T23:32:12.068Z,57.97
2018-01-14T23:34:39.620Z,52.20
2018-01-14T23:37:07.187Z,42.30
2018-01-14T23:39:34.739Z,54.63
2018-01-14T23:42:02.282Z,50.47
2018-01-14T23:44:29.865Z,60.17
2018-01-14T23:46:57.445Z,48.43
2018-01-14T23:49:25.080Z,50.47
2018-01-14T23:51:52.669Z,64.70
2018-01-14T23:54:20.268Z,59.00
2018-01-14T23:56:47.797Z,49.60
2018-01-14T23:59:15.346Z,56.27
